createdAt,value
2022-12-08T00:00:53.204Z,1.20
2022-12-08T00:05:55.045Z,1.27
2022-12-08T00:10:56.942Z,1.30
2022-12-08T00:16:01.757Z,1.58
2022-12-08T00:21:03.643Z,2.28
2022-12-08T00:26:05.680Z,1.48
2022-12-08T00:31:08.308Z,1.08
2022-12-08T00:36:11.233Z,1.95
2022-12-08T00:41:14.194Z,1.73
2022-12-08T00:46:16.142Z,1.30
2022-12-08T00:51:18.036Z,1.55
2022-12-08T00:56:19.852Z,1.60
2022-12-08T01:01:22.451Z,1.80
2022-12-08T01:06:24.302Z,1.55
2022-12-08T01:11:26.167Z,1.48
2022-12-08T01:16:29.238Z,1.25
2022-12-08T01:21:31.191Z,1.23
2022-12-08T01:26:33.044Z,1.48
2022-12-08T01:31:34.875Z,1.60
2022-12-08T01:36:36.685Z,1.40
2022-12-08T01:41:38.963Z,1.88
2022-12-08T01:46:44.927Z,1.50
2022-12-08T01:51:57.229Z,1.77
2022-12-08T01:57:01.264Z,1.85
2022-12-08T02:02:03.848Z,1.80
2022-12-08T02:07:08.288Z,2.13
2022-12-08T02:12:10.491Z,2.17
2022-12-08T02:17:15.482Z,2.10
2022-12-08T02:22:22.667Z,2.30
2022-12-08T02:27:27.553Z,2.28
2022-12-08T02:32:29.374Z,2.60
2022-12-08T02:37:38.947Z,2.88
2022-12-08T02:43:03.741Z,2.95
2022-12-08T02:48:05.850Z,2.60
2022-12-08T02:58:18.024Z,2.78
2022-12-08T03:03:28.933Z,2.72
2022-12-08T03:08:30.796Z,2.53
2022-12-08T03:13:36.218Z,2.30
2022-12-08T03:18:39.913Z,2.05
2022-12-08T03:23:43.983Z,1.83
2022-12-08T03:28:46.137Z,1.90
2022-12-08T03:33:50.307Z,2.63
2022-12-08T03:38:52.949Z,1.88
2022-12-08T03:43:56.129Z,2.40
2022-12-08T03:48:57.932Z,1.95
2022-12-08T03:53:59.720Z,2.42
2022-12-08T03:59:01.959Z,1.95
2022-12-08T04:04:03.955Z,1.58
2022-12-08T04:09:05.732Z,1.67
2022-12-08T04:14:07.687Z,2.13
2022-12-08T04:19:09.501Z,1.30
2022-12-08T04:24:11.519Z,1.50
2022-12-08T04:29:13.358Z,1.77
2022-12-08T04:34:15.239Z,1.50
2022-12-08T04:39:17.025Z,1.80
2022-12-08T04:44:18.828Z,1.58
2022-12-08T04:49:20.635Z,1.85
2022-12-08T04:54:22.455Z,1.83
2022-12-08T04:59:24.256Z,1.80
2022-12-08T05:04:26.102Z,1.42
2022-12-08T05:09:27.938Z,1.40
2022-12-08T05:14:29.745Z,1.10
2022-12-08T05:19:31.560Z,1.30
2022-12-08T05:24:33.386Z,1.23
2022-12-08T05:29:35.485Z,1.40
2022-12-08T05:34:37.299Z,1.15
2022-12-08T05:39:39.115Z,1.10
2022-12-08T05:44:40.918Z,1.00
2022-12-08T05:49:42.741Z,0.65
2022-12-08T05:54:44.561Z,0.82
2022-12-08T05:59:46.391Z,0.80
2022-12-08T06:04:48.235Z,0.68
2022-12-08T06:09:50.038Z,0.80
2022-12-08T06:14:51.855Z,0.90
2022-12-08T06:19:53.681Z,0.90
2022-12-08T06:24:55.523Z,0.90
2022-12-08T06:29:57.321Z,0.90
2022-12-08T06:34:59.099Z,1.73
2022-12-08T06:40:01.128Z,1.20
2022-12-08T06:45:03.223Z,2.00
2022-12-08T06:50:06.172Z,0.77
2022-12-08T06:55:08.897Z,1.00
2022-12-08T07:00:11.102Z,0.93
2022-12-08T07:05:12.901Z,0.77
2022-12-08T07:10:14.716Z,1.00
2022-12-08T07:15:16.499Z,0.75
2022-12-08T07:20:18.350Z,0.65
2022-12-08T07:25:20.263Z,0.80
2022-12-08T07:30:22.144Z,1.02
2022-12-08T07:35:24.042Z,0.73
2022-12-08T07:40:26.014Z,0.60
2022-12-08T07:45:31.496Z,0.85
2022-12-08T07:50:33.778Z,0.90
2022-12-08T07:55:39.130Z,1.25
2022-12-08T08:00:40.990Z,1.88
2022-12-08T08:05:42.810Z,1.35
2022-12-08T08:10:44.959Z,2.67
2022-12-08T08:15:46.879Z,2.63
2022-12-08T08:20:49.552Z,3.10
2022-12-08T08:25:51.366Z,3.22
2022-12-08T08:30:53.315Z,2.83
2022-12-08T08:35:55.293Z,3.72
2022-12-08T08:40:57.110Z,3.30
2022-12-08T08:45:59.861Z,3.55
2022-12-08T08:51:11.823Z,3.20
2022-12-08T08:56:14.743Z,3.20
2022-12-08T09:01:17.285Z,3.65
2022-12-08T09:06:19.519Z,3.55
2022-12-08T09:11:21.447Z,2.97
2022-12-08T09:16:23.296Z,3.75
2022-12-08T09:21:26.283Z,3.28
2022-12-08T09:26:28.288Z,3.60
2022-12-08T09:31:30.250Z,3.58
2022-12-08T09:36:32.336Z,5.25
2022-12-08T09:41:40.420Z,4.55
2022-12-08T09:46:46.980Z,5.07
2022-12-08T09:51:48.801Z,5.30
2022-12-08T09:56:52.033Z,4.70
2022-12-08T10:07:15.988Z,4.68
2022-12-08T10:12:23.546Z,4.63
2022-12-08T10:17:44.038Z,4.60
2022-12-08T10:22:49.048Z,4.10
2022-12-08T10:27:53.115Z,3.90
2022-12-08T10:32:55.037Z,3.67
2022-12-08T10:37:58.071Z,3.20
2022-12-08T10:43:00.019Z,2.95
2022-12-08T10:48:06.607Z,2.88
2022-12-08T10:53:08.394Z,2.90
